KCSM/CSM METAR and TAF weather

Enter ICAO airport designator
Station Type Date Time Source
KCSM METAR 2022/12/08 13:53 UTC NOAA

KCSM 081353Z AUTO 18008KT 1/2SM FG VV003 08/08 A3013 RMK AO2 SLP203 T00830083 $


Station Type Date Time Source
KCSM Decoded METAR 2022/12/08 13:53 UTC NOAA

CLINTON-SHERMAN AIRPORT, OK, United States (KCSM) 35-21E 99-12W 588M
Dec 08, 2022 - 08:53 AM EST / 2022.12.08 1353 UTC
Wind: from the S (180 degrees) at 9 MPH (8 KT):0
Visibility: 1/2 mile(s):0
Sky conditions: obscured
Weather: fog
Temperature: 46.9 F (8.3 C)
Dew Point: 46.9 F (8.3 C)
Relative Humidity: 100%
Pressure (altimeter): 30.13 in. Hg (1020 hPa)
ob: KCSM 081353Z AUTO 18008KT 1/2SM FG VV003 08/08 A3013 RMK AO2 SLP203 T00830083
cycle: 14

Station Type Date Time Source
KCSM TAF 2022/12/08 12:22 UTC NOAA

TAF KCSM 081120Z 0812/0912 19010KT 6SM BR OVC008
TEMPO 0812/0816 1/4SM FG OVC004
FM081600 20011KT P6SM BKN015
FM081800 23014G18KT P6SM SKC
FM090300 31007KT P6SM SCT250

Example: see airport list